Terminal Aerodrome Forecast
Issued by NWS

Home | Current Version | Previous Version | Text Only | Print | Product List | Glossary On
Versions: 1 2 3 4 5 6 7 8 9 10 11 12 13 14 15 16 17 18 19
000
FTUS45 KABQ 172300
TAFLVS
TAF
KLVS 172329Z 1800/1824 18005KT P6SM SCT100
     FM180800 03005KT P6SM SCT015 BKN080
     FM182000 15010G20KT P6SM VCSH SCT015 OVC040=

USA.gov is the U.S. government's official web portal to all federal, state and local government web resources and services.